Time;durP1;ratioP1;P1;durP2;ratioP2;P2;SDS_P1;SDS_P2;PMS_P1;PMS_P2;Temp;Humidity;BMP_temperature;BMP_pressure;BME280_temperature;BME280_humidity;BME280_pressure;Samples;Min_cycle;Max_cycle;Signal;HPM_P1;HPM_P2
2023/10/19 00:00:44;;;;;;;;;;;;;;;10.42;72.18;99935.16;3170609;28;19931;-67
2023/10/19 00:02:19;;;;;;;;;;;;;;;10.43;72.11;99929.03;3170188;28;19920;-67
2023/10/19 00:03:49;;;;;;;;;;;;;;;10.45;71.86;99927.22;3170430;28;19932;-67
2023/10/19 00:05:20;;;;;;;;;;;;;;;10.44;72.00;99929.88;3165920;28;20016;-67
2023/10/19 00:06:53;;;;;;;;;;;;;;;10.38;72.18;99914.53;3165027;28;19927;-67
2023/10/19 00:08:24;;;;;;;;;;;;;;;10.45;72.07;99926.38;3170873;28;19970;-67
2023/10/19 00:09:56;;;;;;;;;;;;;;;10.44;71.77;99924.69;3170531;28;19924;-68
2023/10/19 00:11:28;;;;;;;;;;;;;;;10.43;71.97;99917.78;3162822;28;20055;-68
2023/10/19 00:13:00;;;;;;;;;;;;;;;10.42;72.02;99918.72;3170023;28;20261;-68
2023/10/19 00:14:32;;;;;;;;;;;;;;;10.43;71.71;99915.19;3170692;28;19931;-68
2023/10/19 00:16:13;;;;;;;;;;;;;;;10.43;71.64;99913.41;3170239;28;20549;-68
2023/10/19 00:17:45;;;;;;;;;;;;;;;10.42;71.62;99908.28;3170544;28;19941;-68
2023/10/19 00:19:19;;;;;;;;;;;;;;;10.42;71.84;99906.53;3170319;28;19978;-68
2023/10/19 00:20:52;;;;;;;;;;;;;;;10.41;71.96;99906.59;3163124;28;20019;-68
2023/10/19 00:22:24;;;;;;;;;;;;;;;10.40;71.81;99902.28;3160702;28;19926;-68
2023/10/19 00:23:56;;;;;;;;;;;;;;;10.36;71.68;99895.53;3170423;28;20595;-68
2023/10/19 00:25:29;;;;;;;;;;;;;;;10.32;71.99;99899.16;3169710;28;20432;-67
2023/10/19 00:27:06;;;;;;;;;;;;;;;10.28;72.06;99890.66;3145527;28;19920;-67
2023/10/19 00:28:38;;;;;;;;;;;;;;;10.24;72.10;99895.13;3156439;28;19920;-69
2023/10/19 00:30:19;;;;;;;;;;;;;;;10.19;72.23;99897.06;3157795;28;19923;-67
2023/10/19 00:31:51;;;;;;;;;;;;;;;10.15;72.19;99892.91;3167116;28;20400;-68
2023/10/19 00:33:28;;;;;;;;;;;;;;;10.15;72.07;99885.09;3170628;28;20363;-68
2023/10/19 00:35:07;;;;;;;;;;;;;;;10.17;72.04;99882.41;3167911;28;20388;-69
2023/10/19 00:36:39;;;;;;;;;;;;;;;10.17;71.96;99887.63;3160865;28;19983;-69
2023/10/19 00:38:24;;;;;;;;;;;;;;;10.16;72.25;99878.13;3166059;28;19997;-69
2023/10/19 00:40:14;;;;;;;;;;;;;;;10.11;72.26;99875.72;3170303;28;20013;-69
2023/10/19 00:41:45;;;;;;;;;;;;;;;10.07;72.25;99875.91;3158307;28;19947;-68
2023/10/19 00:43:28;;;;;;;;;;;;;;;10.03;72.05;99875.22;3170405;28;19923;-68
2023/10/19 00:45:04;;;;;;;;;;;;;;;10.02;72.13;99879.53;3146109;28;20243;-68
2023/10/19 00:46:42;;;;;;;;;;;;;;;10.05;72.27;99877.72;3170334;28;19924;-68
2023/10/19 00:48:13;;;;;;;;;;;;;;;10.08;72.38;99878.44;3170137;28;20010;-68
2023/10/19 00:49:45;;;;;;;;;;;;;;;10.11;72.21;99882.66;3169893;28;19930;-69
2023/10/19 00:51:26;;;;;;;;;;;;;;;10.12;72.11;99876.56;3152906;28;19973;-68
2023/10/19 00:52:58;;;;;;;;;;;;;;;10.12;72.25;99871.38;3145309;28;20071;-69
2023/10/19 00:54:32;;;;;;;;;;;;;;;10.12;72.10;99873.97;3158806;28;20422;-68
2023/10/19 00:56:05;;;;;;;;;;;;;;;10.13;71.91;99871.28;3158833;28;19988;-68
2023/10/19 00:57:41;;;;;;;;;;;;;;;10.16;72.00;99873.75;3168123;28;20535;-68
2023/10/19 00:59:14;;;;;;;;;;;;;;;10.17;71.83;99877.22;3170589;28;19926;-68
2023/10/19 01:00:49;;;;;;;;;;;;;;;10.16;71.97;99876.38;3170051;28;19923;-68
2023/10/19 01:02:21;;;;;;;;;;;;;;;10.17;71.64;99872.84;3170215;28;19924;-67
2023/10/19 01:03:56;;;;;;;;;;;;;;;10.18;71.61;99869.34;3169938;28;20335;-68
2023/10/19 01:05:32;;;;;;;;;;;;;;;10.20;71.59;99867.53;3150047;28;19920;-68
2023/10/19 01:07:11;;;;;;;;;;;;;;;10.22;71.80;99867.47;3163662;28;19920;-68
2023/10/19 01:08:42;;;;;;;;;;;;;;;10.22;71.71;99864.84;3169810;28;19923;-68
2023/10/19 01:10:20;;;;;;;;;;;;;;;10.21;71.54;99861.41;3170379;28;20391;-68
2023/10/19 01:11:52;;;;;;;;;;;;;;;10.22;71.56;99859.66;3163164;28;19923;-68
2023/10/19 01:13:33;;;;;;;;;;;;;;;10.21;71.58;99850.16;3170013;28;19919;-68
2023/10/19 01:15:07;;;;;;;;;;;;;;;10.19;71.95;99850.22;3170185;28;19919;-68
2023/10/19 01:16:39;;;;;;;;;;;;;;;10.21;71.58;99850.16;3169996;28;19926;-68
2023/10/19 01:18:13;;;;;;;;;;;;;;;10.21;71.71;99853.59;3170034;28;19923;-68
2023/10/19 01:19:45;;;;;;;;;;;;;;;10.23;71.56;99849.19;3165916;28;19972;-68
2023/10/19 01:21:18;;;;;;;;;;;;;;;10.22;71.38;99851.84;3169880;28;20395;-69
2023/10/19 01:22:54;;;;;;;;;;;;;;;10.22;71.84;99847.47;3160441;28;20044;-68
2023/10/19 01:24:39;;;;;;;;;;;;;;;10.18;71.87;99843.31;3155245;28;20377;-67
2023/10/19 01:26:15;;;;;;;;;;;;;;;10.16;71.84;99842.53;3151097;28;19930;-68
2023/10/19 01:27:49;;;;;;;;;;;;;;;10.14;71.83;99838.31;3157704;28;19920;-68
2023/10/19 01:29:26;;;;;;;;;;;;;;;10.14;71.92;99843.50;3170198;28;20461;-67
2023/10/19 01:30:58;;;;;;;;;;;;;;;10.13;72.02;99847.03;3169870;28;20010;-68
2023/10/19 01:32:30;;;;;;;;;;;;;;;10.14;72.01;99835.69;3164656;28;20293;-68
2023/10/19 01:34:01;;;;;;;;;;;;;;;10.14;71.90;99839.16;3165166;28;19923;-68
2023/10/19 01:36:24;;;;;;;;;;;;;;;10.12;72.09;99838.38;3170171;28;20041;-68
2023/10/19 01:37:23;;;;;;;;;;;;;;;10.09;72.00;99838.53;3166045;28;19919;-68
2023/10/19 01:39:00;;;;;;;;;;;;;;;10.09;72.15;99838.53;3170086;28;19920;-68
2023/10/19 01:40:31;;;;;;;;;;;;;;;10.11;72.11;99841.88;3166033;28;20315;-68
2023/10/19 01:42:04;;;;;;;;;;;;;;;10.11;72.09;99844.47;3150657;28;19920;-68
2023/10/19 01:43:40;;;;;;;;;;;;;;;10.10;72.03;99840.19;3167832;28;20003;-68
2023/10/19 01:45:11;;;;;;;;;;;;;;;10.12;71.88;99850.56;3159596;28;19924;-68
2023/10/19 01:46:44;;;;;;;;;;;;;;;10.14;72.13;99840.91;3169602;28;20380;-68
2023/10/19 01:48:16;;;;;;;;;;;;;;;10.15;71.89;99840.84;3164444;28;20409;-68
2023/10/19 01:49:52;;;;;;;;;;;;;;;10.16;71.95;99839.94;3157501;28;19927;-68
2023/10/19 01:51:23;;;;;;;;;;;;;;;10.17;72.16;99839.00;3168114;28;19927;-68
2023/10/19 01:52:53;;;;;;;;;;;;;;;10.16;72.09;99847.75;3147475;28;19927;-68
2023/10/19 01:54:26;;;;;;;;;;;;;;;10.14;72.15;99853.91;3154272;28;19924;-69
2023/10/19 01:55:58;;;;;;;;;;;;;;;10.13;72.00;99849.63;3155024;28;20506;-69
2023/10/19 01:57:29;;;;;;;;;;;;;;;10.13;72.19;99850.47;3162880;28;20426;-68
2023/10/19 01:59:01;;;;;;;;;;;;;;;10.14;72.12;99852.16;3162431;28;19924;-68
2023/10/19 02:00:32;;;;;;;;;;;;;;;10.15;72.17;99851.25;3157218;28;20007;-68
2023/10/19 02:02:03;;;;;;;;;;;;;;;10.15;71.83;99853.88;3170105;28;20023;-69
2023/10/19 02:03:35;;;;;;;;;;;;;;;10.17;71.95;99854.63;3158551;28;20122;-67
2023/10/19 02:05:10;;;;;;;;;;;;;;;10.17;72.08;99852.03;3160202;28;19928;-68
2023/10/19 02:06:41;;;;;;;;;;;;;;;10.19;72.09;99855.41;3168815;28;20288;-68
2023/10/19 02:08:12;;;;;;;;;;;;;;;10.17;71.76;99846.81;3172058;28;20417;-68
2023/10/19 02:09:46;;;;;;;;;;;;;;;10.17;71.87;99851.19;3171527;28;19926;-68
2023/10/19 02:11:21;;;;;;;;;;;;;;;10.15;72.37;99846.06;3157565;28;19921;-68
2023/10/19 02:12:55;;;;;;;;;;;;;;;10.14;72.34;99849.56;3164327;28;20313;-69
2023/10/19 02:14:28;;;;;;;;;;;;;;;10.14;72.30;99852.16;3171682;28;19923;-69
2023/10/19 02:15:58;;;;;;;;;;;;;;;10.09;72.10;99838.53;3172190;28;20730;-70
2023/10/19 02:17:30;;;;;;;;;;;;;;;10.11;72.22;99846.25;3172042;28;19998;-69
2023/10/19 02:19:01;;;;;;;;;;;;;;;10.11;72.40;99844.47;3167750;28;19926;-70
2023/10/19 02:20:32;;;;;;;;;;;;;;;10.12;72.16;99847.97;3172162;28;20368;-71
2023/10/19 02:22:08;;;;;;;;;;;;;;;10.14;71.97;99846.09;3171732;28;19924;-69
2023/10/19 02:23:39;;;;;;;;;;;;;;;10.16;72.17;99845.13;3160772;28;19920;-69
2023/10/19 02:25:13;;;;;;;;;;;;;;;10.17;72.13;99841.63;3166700;28;20288;-69
2023/10/19 02:26:46;;;;;;;;;;;;;;;10.17;72.17;99845.97;3154641;28;19920;-69
2023/10/19 02:28:18;;;;;;;;;;;;;;;10.17;71.99;99849.41;3163684;28;19968;-68
2023/10/19 02:29:50;;;;;;;;;;;;;;;10.15;72.15;99847.81;3171698;28;19996;-68
2023/10/19 02:31:21;;;;;;;;;;;;;;;10.13;72.61;99852.25;3172020;28;19927;-69
2023/10/19 02:32:53;;;;;;;;;;;;;;;10.08;72.70;99862.00;3167951;28;20319;-69
2023/10/19 02:34:24;;;;;;;;;;;;;;;10.02;72.86;99855.28;3171932;28;20444;-69
2023/10/19 02:35:57;;;;;;;;;;;;;;;9.96;73.07;99858.97;3172074;28;19924;-69
2023/10/19 02:37:27;;;;;;;;;;;;;;;9.91;73.42;99852.28;3162304;28;20462;-68
2023/10/19 02:38:59;;;;;;;;;;;;;;;9.89;73.72;99861.91;3169621;28;20109;-69
2023/10/19 02:40:31;;;;;;;;;;;;;;;9.87;73.71;99855.94;3168558;28;20312;-68
2023/10/19 02:42:03;;;;;;;;;;;;;;;9.89;73.47;99860.16;3152685;28;20284;-68
2023/10/19 02:43:35;;;;;;;;;;;;;;;9.91;73.55;99855.75;3163170;28;19970;-67
2023/10/19 02:45:07;;;;;;;;;;;;;;;9.90;73.78;99858.41;3165932;28;20153;-65
2023/10/19 02:46:41;;;;;;;;;;;;;;;9.89;73.80;99859.31;3171395;28;19968;-68
2023/10/19 02:48:12;;;;;;;;;;;;;;;9.89;73.68;99861.91;3160065;28;19920;-69
2023/10/19 02:49:50;;;;;;;;;;;;;;;9.89;74.03;99857.56;3166871;28;20056;-69
2023/10/19 02:51:21;;;;;;;;;;;;;;;9.92;73.76;99867.00;3164064;27;19953;-69
2023/10/19 02:52:53;;;;;;;;;;;;;;;9.97;73.51;99871.09;3155419;28;20064;-69
2023/10/19 02:54:24;;;;;;;;;;;;;;;9.99;73.71;99863.22;3161432;28;19920;-68
2023/10/19 02:55:59;;;;;;;;;;;;;;;9.99;73.39;99858.84;3159777;28;19946;-68
2023/10/19 02:57:31;;;;;;;;;;;;;;;10.03;73.50;99859.59;3164033;28;20290;-69
2023/10/19 02:59:03;;;;;;;;;;;;;;;10.07;73.32;99860.31;3171590;28;19926;-69
2023/10/19 03:00:37;;;;;;;;;;;;;;;10.06;73.47;99859.47;3171310;28;19996;-68
2023/10/19 03:02:16;;;;;;;;;;;;;;;10.03;73.60;99857.00;3166055;28;19923;-69
2023/10/19 03:03:49;;;;;;;;;;;;;;;10.00;73.64;99863.16;3171069;28;19920;-68
2023/10/19 03:05:21;;;;;;;;;;;;;;;9.98;73.93;99862.38;3164889;28;19928;-68
2023/10/19 03:06:52;;;;;;;;;;;;;;;9.97;74.02;99870.25;3171216;28;19962;-68
2023/10/19 03:08:26;;;;;;;;;;;;;;;9.92;74.61;99867.00;3171144;28;19927;-68
2023/10/19 03:09:57;;;;;;;;;;;;;;;9.94;74.54;99865.19;3171544;27;20320;-68
2023/10/19 03:11:28;;;;;;;;;;;;;;;9.98;74.26;99861.53;3154433;27;19921;-68
2023/10/19 03:13:01;;;;;;;;;;;;;;;10.01;74.08;99862.25;3170829;28;20324;-68
2023/10/19 03:14:31;;;;;;;;;;;;;;;10.02;74.14;99865.69;3171212;28;19920;-68
2023/10/19 03:16:07;;;;;;;;;;;;;;;10.04;74.14;99871.69;3169673;28;19919;-69
2023/10/19 03:17:38;;;;;;;;;;;;;;;10.04;74.10;99874.28;3168502;28;19923;-69
2023/10/19 03:19:09;;;;;;;;;;;;;;;10.01;74.32;99869.22;3171724;28;19919;-68
2023/10/19 03:20:41;;;;;;;;;;;;;;;9.97;74.58;99863.28;3170792;28;19934;-68
2023/10/19 03:22:11;;;;;;;;;;;;;;;9.99;74.47;99873.63;3169366;28;20007;-68
2023/10/19 03:23:43;;;;;;;;;;;;;;;10.02;74.35;99873.50;3157881;28;19928;-69
2023/10/19 03:27:12;;;;;;;;;;;;;;;10.07;74.30;99878.53;3161176;28;19930;-69
2023/10/19 03:28:44;;;;;;;;;;;;;;;10.05;74.00;99872.53;3171299;28;19920;-68
2023/10/19 03:30:18;;;;;;;;;;;;;;;10.01;74.37;99883.06;3171410;28;19923;-68
2023/10/19 03:31:48;;;;;;;;;;;;;;;10.00;74.33;99881.38;3155387;28;19920;-68
2023/10/19 03:33:20;;;;;;;;;;;;;;;10.02;74.31;99873.50;3152555;28;19931;-68
2023/10/19 03:34:55;;;;;;;;;;;;;;;10.04;74.35;99871.69;3163849;28;20309;-69
2023/10/19 03:36:27;;;;;;;;;;;;;;;10.04;74.31;99869.09;3170603;28;19924;-68
2023/10/19 03:38:00;;;;;;;;;;;;;;;10.05;74.25;99867.31;3160006;28;20361;-68
2023/10/19 03:39:35;;;;;;;;;;;;;;;10.04;74.19;99869.09;3167939;28;19998;-68
2023/10/19 03:41:07;;;;;;;;;;;;;;;10.05;74.04;99870.75;3157711;28;20415;-68
2023/10/19 03:42:41;;;;;;;;;;;;;;;10.07;74.13;99870.72;3161621;28;20376;-68
2023/10/19 03:44:18;;;;;;;;;;;;;;;10.09;74.00;99866.31;3171185;28;19959;-69
2023/10/19 03:45:52;;;;;;;;;;;;;;;10.10;74.08;99861.00;3163980;28;19927;-68
2023/10/19 03:47:26;;;;;;;;;;;;;;;10.12;73.89;99861.81;3165709;28;19976;-68
2023/10/19 03:49:04;;;;;;;;;;;;;;;10.15;73.74;99855.63;3165651;27;19924;-68
2023/10/19 03:50:36;;;;;;;;;;;;;;;10.15;73.67;99861.69;3164775;28;19923;-68
2023/10/19 03:52:20;;;;;;;;;;;;;;;10.14;73.51;99865.16;3168884;28;20463;-68
2023/10/19 03:53:55;;;;;;;;;;;;;;;10.09;74.05;99851.53;3170919;28;20392;-68
2023/10/19 03:55:28;;;;;;;;;;;;;;;10.08;74.09;99855.03;3170990;28;19923;-68
2023/10/19 03:57:05;;;;;;;;;;;;;;;10.08;73.97;99862.81;3158691;28;19926;-68
2023/10/19 03:58:40;;;;;;;;;;;;;;;10.08;73.80;99849.81;3170608;28;19930;-68
2023/10/19 04:00:16;;;;;;;;;;;;;;;10.08;73.98;99852.41;3171078;28;19928;-68
2023/10/19 04:01:46;;;;;;;;;;;;;;;10.05;73.82;99847.34;3161602;28;19923;-68
2023/10/19 04:03:18;;;;;;;;;;;;;;;10.02;74.19;99850.91;3162630;28;20451;-67
2023/10/19 04:04:52;;;;;;;;;;;;;;;10.02;74.17;99842.28;3167458;28;19920;-68
2023/10/19 04:06:22;;;;;;;;;;;;;;;10.01;74.36;99845.78;3153241;28;19931;-68
2023/10/19 04:07:55;;;;;;;;;;;;;;;10.02;74.08;99848.31;3170879;28;19928;-68
2023/10/19 04:09:29;;;;;;;;;;;;;;;9.97;74.59;99847.69;3170918;28;20010;-68
2023/10/19 04:11:11;;;;;;;;;;;;;;;9.93;74.57;99853.06;3167161;28;19934;-68
2023/10/19 04:12:42;;;;;;;;;;;;;;;9.91;74.64;99853.16;3170662;28;20095;-68
2023/10/19 04:14:16;;;;;;;;;;;;;;;9.93;74.64;99850.47;3170982;28;20398;-69
2023/10/19 04:15:49;;;;;;;;;;;;;;;9.96;74.50;99852.94;3166425;28;19993;-68
2023/10/19 04:17:23;;;;;;;;;;;;;;;9.98;74.57;99856.34;3164463;28;19924;-68
2023/10/19 04:18:55;;;;;;;;;;;;;;;9.98;74.26;99845.94;3163557;28;19923;-69
2023/10/19 04:20:35;;;;;;;;;;;;;;;10.00;74.64;99855.38;3164341;28;19931;-69
2023/10/19 04:22:11;;;;;;;;;;;;;;;10.01;74.11;99846.63;3155510;28;19935;-68
2023/10/19 04:23:41;;;;;;;;;;;;;;;10.05;74.30;99851.72;3170109;28;19923;-68
2023/10/19 04:25:13;;;;;;;;;;;;;;;10.06;74.12;99851.66;3170636;28;19987;-68
2023/10/19 04:26:44;;;;;;;;;;;;;;;10.06;74.16;99851.66;3153689;28;20423;-68
2023/10/19 04:28:15;;;;;;;;;;;;;;;10.08;74.07;99851.56;3158939;28;19923;-68
2023/10/19 04:29:49;;;;;;;;;;;;;;;10.08;73.78;99852.41;3169867;28;19920;-68
2023/10/19 04:31:23;;;;;;;;;;;;;;;10.10;73.67;99853.22;3153454;28;19925;-68
2023/10/19 04:32:57;;;;;;;;;;;;;;;10.12;73.76;99845.34;3148681;28;20408;-68
2023/10/19 04:34:29;;;;;;;;;;;;;;;10.14;73.73;99848.72;3149983;28;19924;-68
2023/10/19 04:36:00;;;;;;;;;;;;;;;10.14;73.58;99852.16;3149373;28;19932;-68
2023/10/19 04:37:32;;;;;;;;;;;;;;;10.13;73.49;99847.88;3149948;28;19920;-69
2023/10/19 04:39:04;;;;;;;;;;;;;;;10.15;73.53;99847.81;3154258;28;20399;-68
2023/10/19 04:40:35;;;;;;;;;;;;;;;10.12;73.78;99846.19;3154337;28;19956;-68
2023/10/19 04:42:07;;;;;;;;;;;;;;;10.11;73.41;99851.44;3154788;28;19926;-68
2023/10/19 04:43:38;;;;;;;;;;;;;;;10.09;73.60;99848.94;3150848;28;19928;-68
2023/10/19 04:45:12;;;;;;;;;;;;;;;10.08;73.38;99856.78;3155843;28;20250;-68
2023/10/19 04:46:45;;;;;;;;;;;;;;;10.07;73.48;99845.53;3148153;28;20383;-69
2023/10/19 04:48:15;;;;;;;;;;;;;;;10.04;73.46;99850.88;3152424;28;20363;-68
2023/10/19 04:49:47;;;;;;;;;;;;;;;10.02;73.75;99847.47;3149838;28;20046;-67
2023/10/19 04:51:17;;;;;;;;;;;;;;;9.99;73.67;99856.25;3150045;28;19932;-67
2023/10/19 04:52:49;;;;;;;;;;;;;;;9.96;73.58;99853.78;3152624;28;20060;-67
2023/10/19 04:54:20;;;;;;;;;;;;;;;9.95;73.53;99857.31;3149098;28;19931;-68
2023/10/19 04:55:51;;;;;;;;;;;;;;;9.93;73.66;99853.91;3156071;28;19988;-68
2023/10/19 04:57:24;;;;;;;;;;;;;;;9.89;73.53;99856.72;3150442;28;19924;-68
2023/10/19 04:58:55;;;;;;;;;;;;;;;9.87;73.95;99864.56;3150325;28;19938;-66
2023/10/19 05:00:27;;;;;;;;;;;;;;;9.87;73.89;99863.72;3148832;28;19987;-67
2023/10/19 05:02:00;;;;;;;;;;;;;;;9.84;74.14;99866.47;3147951;28;19976;-67
2023/10/19 05:03:32;;;;;;;;;;;;;;;9.77;74.13;99861.50;3149298;28;20399;-68
2023/10/19 05:05:04;;;;;;;;;;;;;;;9.75;73.96;99863.31;3151908;28;19920;-70
2023/10/19 05:06:34;;;;;;;;;;;;;;;9.75;74.00;99872.88;3155946;28;19966;-70
2023/10/19 05:08:06;;;;;;;;;;;;;;;9.69;74.22;99862.72;3155140;28;19923;-67
2023/10/19 05:09:39;;;;;;;;;;;;;;;9.74;73.87;99864.22;3156725;28;19924;-68
2023/10/19 05:11:11;;;;;;;;;;;;;;;9.74;73.93;99866.84;3152941;28;20030;-67
2023/10/19 05:12:41;;;;;;;;;;;;;;;9.75;73.61;99870.28;3152505;28;20018;-66
2023/10/19 05:14:14;;;;;;;;;;;;;;;9.72;73.45;99871.25;3148058;28;19928;-66
2023/10/19 05:15:47;;;;;;;;;;;;;;;9.71;73.36;99871.31;3154402;28;20294;-67
2023/10/19 05:17:21;;;;;;;;;;;;;;;9.69;73.46;99873.97;3149381;28;20545;-66
2023/10/19 05:18:52;;;;;;;;;;;;;;;9.67;73.57;99870.59;3149806;28;19920;-67
2023/10/19 05:20:23;;;;;;;;;;;;;;;9.67;73.62;99870.59;3154396;28;19920;-71
2023/10/19 05:21:55;;;;;;;;;;;;;;;9.66;73.29;99870.66;3169680;28;19924;-69
2023/10/19 05:23:27;;;;;;;;;;;;;;;9.65;73.34;99877.63;3169363;28;19924;-71
2023/10/19 05:24:58;;;;;;;;;;;;;;;9.65;73.22;99872.41;3169591;28;19946;-68
2023/10/19 05:26:30;;;;;;;;;;;;;;;9.65;73.35;99876.78;3158292;28;19972;-71
2023/10/19 05:28:14;;;;;;;;;;;;;;;9.63;73.19;99876.81;3164398;28;20388;-71
2023/10/19 05:29:48;;;;;;;;;;;;;;;9.62;73.10;99871.69;3156026;28;20219;-68
2023/10/19 05:31:24;;;;;;;;;;;;;;;9.62;73.28;99875.13;3153047;28;20011;-67
2023/10/19 05:32:55;;;;;;;;;;;;;;;9.62;73.32;99872.53;3158351;28;20068;-70
2023/10/19 05:34:29;;;;;;;;;;;;;;;9.63;73.17;99873.38;3155661;28;21174;-70
2023/10/19 05:36:01;;;;;;;;;;;;;;;9.65;73.31;99874.16;3159952;28;19924;-74
2023/10/19 05:37:33;;;;;;;;;;;;;;;9.63;73.28;99874.22;3159706;28;20365;-72
2023/10/19 05:39:07;;;;;;;;;;;;;;;9.65;73.27;99875.00;3165731;28;20006;-69
2023/10/19 05:40:42;;;;;;;;;;;;;;;9.66;73.05;99874.09;3164590;28;19973;-72
2023/10/19 05:42:13;;;;;;;;;;;;;;;9.68;73.10;99876.66;3153342;28;19928;-68
2023/10/19 05:43:45;;;;;;;;;;;;;;;9.70;73.00;99873.09;3172115;28;20015;-74
2023/10/19 05:45:16;;;;;;;;;;;;;;;9.71;72.89;99879.13;3164428;28;19933;-69
2023/10/19 05:46:49;;;;;;;;;;;;;;;9.72;73.11;99880.81;3159355;28;19978;-70
2023/10/19 05:48:20;;;;;;;;;;;;;;;9.73;73.04;99878.16;3147447;28;20554;-70
2023/10/19 05:49:51;;;;;;;;;;;;;;;9.76;73.03;99877.16;3171412;28;19981;-68
2023/10/19 05:51:22;;;;;;;;;;;;;;;9.77;73.03;99873.66;3161192;28;19920;-69
2023/10/19 05:52:54;;;;;;;;;;;;;;;9.78;72.90;99881.41;3168519;28;19926;-68
2023/10/19 05:54:24;;;;;;;;;;;;;;;9.79;73.11;99872.69;3172003;28;19919;-70
2023/10/19 05:55:56;;;;;;;;;;;;;;;9.82;73.06;99871.75;3155576;28;19925;-67
2023/10/19 05:57:26;;;;;;;;;;;;;;;9.85;72.82;99874.22;3164285;28;19923;-68
2023/10/19 05:58:58;;;;;;;;;;;;;;;9.88;72.94;99875.81;3167496;28;21422;-71
2023/10/19 06:00:29;;;;;;;;;;;;;;;9.92;73.05;99877.41;3159226;28;19981;-74
2023/10/19 06:02:02;;;;;;;;;;;;;;;9.94;73.16;99873.81;3163175;28;20078;-73
2023/10/19 06:03:32;;;;;;;;;;;;;;;9.97;72.75;99880.66;3160861;28;19924;-70
2023/10/19 06:05:05;;;;;;;;;;;;;;;10.01;72.72;99880.47;3164625;28;19949;-69
2023/10/19 06:06:37;;;;;;;;;;;;;;;10.06;73.08;99877.69;3161249;28;19930;-69
2023/10/19 06:08:08;;;;;;;;;;;;;;;10.11;73.02;99880.91;3161201;28;20010;-69
2023/10/19 06:09:40;;;;;;;;;;;;;;;10.18;73.09;99881.53;3167407;28;19923;-69
2023/10/19 06:11:11;;;;;;;;;;;;;;;10.28;73.07;99882.00;3163582;28;20003;-66
2023/10/19 06:12:43;;;;;;;;;;;;;;;10.38;72.85;99873.75;3159294;28;19927;-69
2023/10/19 06:14:13;;;;;;;;;;;;;;;10.45;72.72;99879.53;3154570;28;19920;-66
2023/10/19 06:15:45;;;;;;;;;;;;;;;10.54;72.72;99879.13;3162787;27;19927;-65
2023/10/19 06:17:19;;;;;;;;;;;;;;;10.66;72.67;99867.31;3165528;28;19963;-65
2023/10/19 06:18:51;;;;;;;;;;;;;;;10.79;72.53;99873.66;3158396;28;20454;-65
2023/10/19 06:20:25;;;;;;;;;;;;;;;10.97;72.34;99879.78;3166410;28;19920;-63
2023/10/19 06:21:57;;;;;;;;;;;;;;;11.13;72.26;99872.97;3166462;28;19954;-65
2023/10/19 06:23:31;;;;;;;;;;;;;;;11.33;72.25;99868.59;3165700;28;19919;-62
2023/10/19 06:25:03;;;;;;;;;;;;;;;11.50;72.08;99868.63;3166600;28;19926;-67
2023/10/19 06:26:35;;;;;;;;;;;;;;;11.71;71.63;99871.13;3154820;28;19954;-63
2023/10/19 06:28:07;;;;;;;;;;;;;;;11.89;71.55;99872.88;3162234;28;20908;-64
2023/10/19 06:29:38;;;;;;;;;;;;;;;12.07;71.30;99877.19;3167202;28;20384;-65
2023/10/19 06:31:10;;;;;;;;;;;;;;;12.25;71.04;99874.56;3168265;28;19976;-65
2023/10/19 06:32:42;;;;;;;;;;;;;;;12.45;70.77;99877.00;3154845;28;20380;-64
2023/10/19 06:34:14;;;;;;;;;;;;;;;12.69;70.81;99879.28;3154025;28;19982;-61
2023/10/19 06:35:46;;;;;;;;;;;;;;;12.94;70.31;99874.41;3163428;28;20010;-71
2023/10/19 06:37:17;;;;;;;;;;;;;;;13.24;70.26;99873.66;3160168;28;19920;-69
2023/10/19 06:38:50;;;;;;;;;;;;;;;13.59;70.26;99871.72;3171895;28;20443;-68
2023/10/19 06:40:22;;;;;;;;;;;;;;;13.87;68.92;99878.00;3171093;28;19976;-68
2023/10/19 06:41:53;;;;;;;;;;;;;;;13.98;68.33;99874.78;3166410;28;19927;-68
2023/10/19 06:43:28;;;;;;;;;;;;;;;14.23;68.20;99872.41;3158329;28;19924;-69
2023/10/19 06:45:00;;;;;;;;;;;;;;;14.55;68.00;99874.91;3155403;28;20598;-68
2023/10/19 06:46:31;;;;;;;;;;;;;;;14.84;67.38;99874.91;3171570;27;20042;-67
2023/10/19 06:48:06;;;;;;;;;;;;;;;15.12;67.01;99872.28;3172025;28;19928;-66
2023/10/19 06:49:37;;;;;;;;;;;;;;;15.48;66.65;99876.97;3157571;28;20022;-65
2023/10/19 06:51:09;;;;;;;;;;;;;;;15.89;65.93;99870.84;3158830;28;19980;-64
2023/10/19 06:52:40;;;;;;;;;;;;;;;16.34;64.84;99875.72;3167902;28;19927;-65
2023/10/19 06:54:13;;;;;;;;;;;;;;;16.56;64.06;99872.47;3158841;28;19924;-65
2023/10/19 06:55:43;;;;;;;;;;;;;;;16.64;63.57;99867.53;3158994;28;19920;-64
2023/10/19 06:57:15;;;;;;;;;;;;;;;16.90;63.26;99873.63;3154702;28;19931;-67
2023/10/19 06:58:47;;;;;;;;;;;;;;;17.14;62.68;99870.22;3167039;28;19923;-67
2023/10/19 07:00:19;;;;;;;;;;;;;;;17.38;62.36;99871.09;3164725;28;19920;-67
2023/10/19 07:01:51;;;;;;;;;;;;;;;17.65;62.15;99873.50;3157477;28;19955;-68
2023/10/19 07:03:23;;;;;;;;;;;;;;;17.90;60.73;99874.38;3158572;28;19920;-67
2023/10/19 07:04:55;;;;;;;;;;;;;;;18.16;60.57;99872.38;3169353;28;19947;-65
2023/10/19 07:06:26;;;;;;;;;;;;;;;18.53;60.08;99878.34;3161273;28;19924;-65
2023/10/19 07:07:59;;;;;;;;;;;;;;;18.79;59.31;99872.88;3162471;28;19920;-66
2023/10/19 07:09:29;;;;;;;;;;;;;;;19.12;58.59;99873.81;3160931;28;19928;-65
2023/10/19 07:11:02;;;;;;;;;;;;;;;19.31;57.70;99874.88;3166833;28;19924;-65
2023/10/19 07:12:32;;;;;;;;;;;;;;;19.71;57.02;99868.19;3171676;28;20568;-64
2023/10/19 07:14:06;;;;;;;;;;;;;;;19.92;55.81;99868.22;3167564;28;19927;-65
2023/10/19 07:15:41;;;;;;;;;;;;;;;19.82;55.50;99873.44;3170191;28;19923;-66
2023/10/19 07:17:13;;;;;;;;;;;;;;;19.66;55.15;99870.34;3171302;28;19919;-65
2023/10/19 07:18:48;;;;;;;;;;;;;;;19.47;55.07;99876.28;3168807;28;19920;-66
2023/10/19 07:20:25;;;;;;;;;;;;;;;19.28;55.31;99868.97;3171562;28;19935;-65
2023/10/19 07:21:57;;;;;;;;;;;;;;;19.22;55.48;99872.94;3171732;28;19924;-64
2023/10/19 07:23:29;;;;;;;;;;;;;;;19.24;55.22;99878.13;3163553;28;19924;-65
2023/10/19 07:25:00;;;;;;;;;;;;;;;19.25;55.39;99864.78;3161085;28;19924;-67
2023/10/19 07:26:33;;;;;;;;;;;;;;;19.33;54.73;99865.00;3152223;28;20678;-68
2023/10/19 07:28:06;;;;;;;;;;;;;;;19.22;53.79;99858.91;3164948;28;20006;-67
2023/10/19 07:29:37;;;;;;;;;;;;;;;18.98;53.72;99864.34;3155541;28;20491;-66
2023/10/19 07:31:15;;;;;;;;;;;;;;;18.88;53.84;99858.13;3166413;28;19953;-66
2023/10/19 07:32:48;;;;;;;;;;;;;;;19.00;54.19;99859.81;3159010;28;19931;-67
2023/10/19 07:34:25;;;;;;;;;;;;;;;19.32;53.97;99860.69;3159718;28;19924;-66
2023/10/19 07:35:59;;;;;;;;;;;;;;;19.57;52.42;99861.34;3171628;28;19919;-66
2023/10/19 07:37:31;;;;;;;;;;;;;;;19.49;50.79;99861.13;3171511;28;19930;-66
2023/10/19 07:39:03;;;;;;;;;;;;;;;19.31;50.88;99850.25;3171481;28;19927;-67
2023/10/19 07:40:33;;;;;;;;;;;;;;;19.29;50.20;99855.66;3168260;28;20313;-66
2023/10/19 07:42:06;;;;;;;;;;;;;;;19.29;50.59;99855.66;3162456;28;19919;-65
2023/10/19 07:43:37;;;;;;;;;;;;;;;19.43;50.58;99856.34;3165445;28;19973;-65
2023/10/19 07:45:11;;;;;;;;;;;;;;;19.87;50.95;99854.53;3171757;28;19977;-66
2023/10/19 07:46:42;;;;;;;;;;;;;;;20.34;49.67;99855.00;3171314;28;19920;-68
2023/10/19 07:48:15;;;;;;;;;;;;;;;20.84;49.66;99848.00;3171608;28;19919;-67
2023/10/19 07:49:51;;;;;;;;;;;;;;;21.45;49.01;99849.72;3159572;28;19927;-66
2023/10/19 07:51:22;;;;;;;;;;;;;;;21.95;48.09;99852.25;3148155;28;19939;-67
2023/10/19 07:52:54;;;;;;;;;;;;;;;22.35;47.32;99850.38;3146722;28;19929;-67
2023/10/19 07:54:24;;;;;;;;;;;;;;;22.73;46.73;99843.28;3170167;28;19920;-67
2023/10/19 07:55:57;;;;;;;;;;;;;;;23.12;46.06;99851.91;3166378;28;19947;-67
2023/10/19 07:57:27;;;;;;;;;;;;;;;23.42;45.61;99844.59;3168540;28;19963;-67
2023/10/19 07:58:59;;;;;;;;;;;;;;;23.71;45.26;99831.13;3168168;28;19927;-66
2023/10/19 08:00:29;;;;;;;;;;;;;;;23.97;44.22;99836.47;3170874;28;20149;-67
2023/10/19 08:02:02;;;;;;;;;;;;;;;23.94;43.89;99836.78;3160912;28;19928;-67
2023/10/19 08:03:35;;;;;;;;;;;;;;;24.20;43.86;99835.00;3161531;28;19920;-67
2023/10/19 08:05:07;;;;;;;;;;;;;;;24.37;43.13;99843.06;3156738;28;19970;-67
2023/10/19 08:06:38;;;;;;;;;;;;;;;24.19;42.37;99835.13;3157575;28;19928;-67
2023/10/19 08:08:09;;;;;;;;;;;;;;;24.05;42.32;99845.34;3158691;28;19931;-66